Country
Station

 

Weather  for  Unalakleet  -  United States    United States

  
16 °C (61 °F)
    
 
 

Current METAR for Unalakleet is :

PAUN 201956Z AUTO 30006KT 10SM CLR 16/12 A3024 RMK AO2 SLP244 T01560117

 

This is a report for Unalakleet - United States.
 
The report was made 29 minutes ago, at 19:56 UTC .
The wind was blowing at a speed of 3.1 meters per second (6.9 miles per hour) from west/northwest (300°).
 
The temperature was 16 °C (61 °F), with a dew-point at 12 °C (54 °F).
The atmospheric pressure was 1024 hPa (30.24 inHg).
The relative humidity was 77.1%.
 
The sky was clear.
 
The overall visibility was 16.1 kilometers (10.0 miles).
 

 
 
 
 

Country :   A   B   C   D   E   F   G   H   I   J   K   L   M   N   O   P   Q   R   S   T   U   V   W   Y   Z

 

Site Info  |  Disclaimer  |  Credits  |  Privacy
Contact us  |  Add to favorites
© 2013-2019 METARs - All rights reserved